createdAt,value
2022-09-10T00:01:30.525Z,17.75
2022-09-10T00:03:59.177Z,17.69
2022-09-10T00:06:27.945Z,17.63
2022-09-10T00:09:00.511Z,17.69
2022-09-10T00:11:32.479Z,17.44
2022-09-10T00:14:01.782Z,17.63
2022-09-10T00:16:31.175Z,17.69
2022-09-10T00:19:01.289Z,17.44
2022-09-10T00:21:30.185Z,17.38
2022-09-10T00:23:58.067Z,17.69
2022-09-10T00:26:35.309Z,17.75
2022-09-10T00:29:02.810Z,17.56
2022-09-10T00:31:32.811Z,17.44
2022-09-10T00:34:03.073Z,17.31
2022-09-10T00:36:40.358Z,17.38
2022-09-10T00:39:15.235Z,17.63
2022-09-10T00:41:46.197Z,17.56
2022-09-10T00:44:40.981Z,17.63
2022-09-10T00:47:19.915Z,17.63
2022-09-10T00:50:17.105Z,17.63
2022-09-10T00:52:47.532Z,17.44
2022-09-10T00:55:16.877Z,17.38
2022-09-10T00:57:47.327Z,17.13
2022-09-10T01:00:15.948Z,17.13
2022-09-10T01:02:44.334Z,16.94
2022-09-10T01:05:12.800Z,16.88
2022-09-10T01:07:41.115Z,16.75
2022-09-10T01:10:18.345Z,17.00
2022-09-10T01:13:16.149Z,16.94
2022-09-10T01:16:19.005Z,16.81
2022-09-10T01:19:10.905Z,16.44
2022-09-10T01:22:01.091Z,16.44
2022-09-10T01:24:34.237Z,16.38
2022-09-10T01:27:55.608Z,16.06
2022-09-10T01:30:37.259Z,16.25
2022-09-10T01:33:24.839Z,16.50
2022-09-10T01:35:57.983Z,16.25
2022-09-10T01:38:35.588Z,16.19
2022-09-10T01:41:03.194Z,16.13
2022-09-10T01:43:31.252Z,16.19
2022-09-10T01:46:04.194Z,16.25
2022-09-10T01:49:11.592Z,16.00
2022-09-10T01:52:01.158Z,16.00
2022-09-10T01:55:12.726Z,15.81
2022-09-10T01:58:04.327Z,16.13
2022-09-10T02:00:35.416Z,15.88
2022-09-10T02:03:11.437Z,16.06
2022-09-10T02:05:42.450Z,16.06
2022-09-10T02:08:23.479Z,15.94
2022-09-10T02:10:59.399Z,15.88
2022-09-10T02:13:29.992Z,16.06
2022-09-10T02:15:59.583Z,15.88
2022-09-10T02:18:36.042Z,15.75
2022-09-10T02:21:03.727Z,15.94
2022-09-10T02:23:44.743Z,15.69
2022-09-10T02:26:14.554Z,15.94
2022-09-10T02:28:45.835Z,16.19
2022-09-10T02:31:13.908Z,16.19
2022-09-10T02:33:41.198Z,16.13
2022-09-10T02:36:11.601Z,15.63
2022-09-10T02:38:38.959Z,16.00
2022-09-10T02:41:06.236Z,16.00
2022-09-10T02:43:36.086Z,15.94
2022-09-10T02:46:03.726Z,15.94
2022-09-10T02:48:31.240Z,15.94
2022-09-10T02:50:58.951Z,15.94
2022-09-10T02:53:26.261Z,16.00
2022-09-10T02:55:54.447Z,15.69
2022-09-10T02:58:21.712Z,15.69
2022-09-10T03:00:48.987Z,15.31
2022-09-10T03:03:17.307Z,15.69
2022-09-10T03:05:44.797Z,15.69
2022-09-10T03:08:12.073Z,15.88
2022-09-10T03:10:39.553Z,16.00
2022-09-10T03:13:06.969Z,15.94
2022-09-10T03:15:34.278Z,15.88
2022-09-10T03:18:01.502Z,16.00
2022-09-10T03:20:28.787Z,16.19
2022-09-10T03:22:57.315Z,16.06
2022-09-10T03:25:24.666Z,16.06
2022-09-10T03:27:52.431Z,15.81
2022-09-10T03:30:21.277Z,15.94
2022-09-10T03:32:50.349Z,15.94
2022-09-10T03:35:18.390Z,15.75
2022-09-10T03:37:45.707Z,15.88
2022-09-10T03:40:13.024Z,15.81
2022-09-10T03:42:40.351Z,15.88
2022-09-10T03:45:08.562Z,15.81
2022-09-10T03:47:37.739Z,15.63
2022-09-10T03:50:06.506Z,15.81
2022-09-10T03:52:33.772Z,15.75
2022-09-10T03:55:00.999Z,15.81
2022-09-10T03:57:28.224Z,16.00
2022-09-10T03:59:56.744Z,15.56
2022-09-10T04:02:24.064Z,15.81
2022-09-10T04:04:51.349Z,15.75
2022-09-10T04:07:18.597Z,15.81
2022-09-10T04:09:46.253Z,15.81
2022-09-10T04:12:13.443Z,15.75
2022-09-10T04:14:40.736Z,15.81
2022-09-10T04:17:07.947Z,15.75
2022-09-10T04:19:35.497Z,15.63
2022-09-10T04:22:03.146Z,15.75
2022-09-10T04:24:30.702Z,15.75
2022-09-10T04:26:59.122Z,15.88
2022-09-10T04:29:26.352Z,15.88
2022-09-10T04:31:55.362Z,15.81
2022-09-10T04:34:22.874Z,15.69
2022-09-10T04:36:50.196Z,15.94
2022-09-10T04:39:17.614Z,15.88
2022-09-10T04:41:44.851Z,15.75
2022-09-10T04:44:12.100Z,15.69
2022-09-10T04:46:39.441Z,15.88
2022-09-10T04:49:06.935Z,15.94
2022-09-10T04:51:34.141Z,15.81
2022-09-10T04:54:01.878Z,15.63
2022-09-10T04:56:29.479Z,15.75
2022-09-10T04:58:56.752Z,15.81
2022-09-10T05:01:24.048Z,15.94
2022-09-10T05:03:51.342Z,15.88
2022-09-10T05:06:18.553Z,15.88
2022-09-10T05:08:45.756Z,15.94
2022-09-10T05:11:13.304Z,16.06
2022-09-10T05:13:41.604Z,16.19
2022-09-10T05:16:08.917Z,15.94
2022-09-10T05:18:36.304Z,15.81
2022-09-10T05:21:05.362Z,16.00
2022-09-10T05:23:33.008Z,15.94
2022-09-10T05:26:00.225Z,16.06
2022-09-10T05:28:27.521Z,15.88
2022-09-10T05:30:54.772Z,16.06
2022-09-10T05:33:22.189Z,16.00
2022-09-10T05:35:53.080Z,15.94
2022-09-10T05:38:21.003Z,15.81
2022-09-10T05:40:49.125Z,16.00
2022-09-10T05:43:16.606Z,16.00
2022-09-10T05:45:43.983Z,16.13
2022-09-10T05:48:11.366Z,16.06
2022-09-10T05:50:38.757Z,15.88
2022-09-10T05:53:06.448Z,16.13
2022-09-10T05:55:33.805Z,15.94
2022-09-10T05:58:01.273Z,16.31
2022-09-10T06:00:28.770Z,16.31
2022-09-10T06:02:57.459Z,16.50
2022-09-10T06:05:24.928Z,16.31
2022-09-10T06:07:52.445Z,16.31
2022-09-10T06:10:20.113Z,16.38
2022-09-10T06:12:52.149Z,16.56
2022-09-10T06:15:21.295Z,16.31
2022-09-10T06:17:48.675Z,16.56
2022-09-10T06:20:16.095Z,16.25
2022-09-10T06:22:43.479Z,16.19
2022-09-10T06:25:10.842Z,16.25
2022-09-10T06:27:38.390Z,16.38
2022-09-10T06:30:06.455Z,16.13
2022-09-10T06:32:33.717Z,16.31
2022-09-10T06:35:00.969Z,16.69
2022-09-10T06:37:28.260Z,16.81
2022-09-10T06:39:55.605Z,16.81
2022-09-10T06:42:23.987Z,16.81
2022-09-10T06:44:51.437Z,17.06
2022-09-10T06:48:01.114Z,17.06
2022-09-10T06:50:07.079Z,17.06
2022-09-10T06:52:34.297Z,17.06
2022-09-10T06:55:01.540Z,16.88
2022-09-10T06:57:29.459Z,16.56
2022-09-10T06:59:56.699Z,16.50
2022-09-10T07:02:24.141Z,16.81
2022-09-10T07:04:51.443Z,16.88
2022-09-10T07:07:20.220Z,17.13
2022-09-10T07:09:47.462Z,17.19
2022-09-10T07:12:14.724Z,17.19
2022-09-10T07:14:42.427Z,17.31
2022-09-10T07:17:09.641Z,17.19
2022-09-10T07:19:37.771Z,17.44
2022-09-10T07:22:05.261Z,17.75
2022-09-10T07:24:32.556Z,17.69
2022-09-10T07:27:00.132Z,17.69
2022-09-10T07:29:29.868Z,17.81
2022-09-10T07:31:57.152Z,18.00
2022-09-10T07:34:24.725Z,18.13
2022-09-10T07:36:52.060Z,18.44
2022-09-10T07:39:22.413Z,18.56
2022-09-10T07:41:53.495Z,18.75
2022-09-10T07:44:20.970Z,18.88
2022-09-10T07:46:48.171Z,18.88
2022-09-10T07:49:15.429Z,19.31
2022-09-10T07:51:42.679Z,18.63
2022-09-10T07:54:09.847Z,18.38
2022-09-10T07:56:37.973Z,18.19
2022-09-10T07:59:05.181Z,18.25
2022-09-10T08:01:32.732Z,18.56
2022-09-10T08:04:00.469Z,18.94
2022-09-10T08:06:27.720Z,18.88
2022-09-10T08:08:55.330Z,19.00
2022-09-10T08:11:22.614Z,19.44
2022-09-10T08:13:52.731Z,19.81
2022-09-10T08:16:25.074Z,19.63
2022-09-10T08:18:52.538Z,19.69
2022-09-10T08:21:20.657Z,19.69
2022-09-10T08:23:56.851Z,19.75
2022-09-10T08:26:26.373Z,19.81
2022-09-10T08:28:58.227Z,19.81
2022-09-10T08:31:26.628Z,19.75
2022-09-10T08:33:56.849Z,19.75
2022-09-10T08:36:25.771Z,19.69
2022-09-10T08:38:59.524Z,19.31
2022-09-10T08:41:39.342Z,19.19
2022-09-10T08:44:42.499Z,18.88
2022-09-10T08:47:25.233Z,19.19
2022-09-10T08:49:58.507Z,19.38
2022-09-10T08:52:42.296Z,19.69
2022-09-10T08:55:18.659Z,20.06
2022-09-10T08:57:48.297Z,20.19
2022-09-10T09:00:25.395Z,20.06
2022-09-10T09:03:05.504Z,20.06
2022-09-10T09:05:54.351Z,20.25
2022-09-10T09:08:28.398Z,20.00
2022-09-10T09:10:55.566Z,19.63
2022-09-10T09:13:38.794Z,19.44
2022-09-10T09:16:37.432Z,19.13
2022-09-10T09:19:35.392Z,19.56
2022-09-10T09:22:21.559Z,19.69
2022-09-10T09:24:58.027Z,19.94
2022-09-10T09:27:32.498Z,19.50
2022-09-10T09:30:06.925Z,19.25
2022-09-10T09:32:40.324Z,19.56
2022-09-10T09:35:38.774Z,20.19
2022-09-10T09:38:14.805Z,20.38
2022-09-10T09:41:12.690Z,20.50
2022-09-10T09:43:58.865Z,20.44
2022-09-10T09:46:26.440Z,20.69
2022-09-10T09:48:59.343Z,20.31
2022-09-10T09:51:32.537Z,20.56
2022-09-10T09:57:00.328Z,20.63
2022-09-10T09:59:36.893Z,20.75
2022-09-10T10:02:15.624Z,20.88
2022-09-10T10:05:25.685Z,20.94
2022-09-10T10:07:53.007Z,20.75
2022-09-10T10:10:28.656Z,20.69
2022-09-10T10:12:57.209Z,20.44
2022-09-10T10:15:44.508Z,20.25
2022-09-10T10:18:24.950Z,20.00
2022-09-10T10:21:29.686Z,20.00
2022-09-10T10:23:57.152Z,19.94
2022-09-10T10:26:45.849Z,19.81
2022-09-10T10:29:21.697Z,19.75
2022-09-10T10:31:51.214Z,19.81
2022-09-10T10:34:57.018Z,19.88
2022-09-10T10:38:01.897Z,19.81
2022-09-10T10:40:57.779Z,20.00
2022-09-10T10:44:09.591Z,19.75
2022-09-10T10:47:06.112Z,19.63
2022-09-10T10:50:16.212Z,19.44
2022-09-10T10:53:08.556Z,19.44
2022-09-10T10:55:47.436Z,19.44
2022-09-10T10:58:26.271Z,19.50
2022-09-10T11:01:05.621Z,19.81
2022-09-10T11:03:51.520Z,20.19
2022-09-10T11:06:25.690Z,20.25
2022-09-10T11:09:10.398Z,20.44
2022-09-10T11:11:52.832Z,20.56
2022-09-10T11:14:23.239Z,21.00
2022-09-10T11:17:02.456Z,20.88
2022-09-10T11:20:29.687Z,20.75
2022-09-10T11:23:34.182Z,20.75
2022-09-10T11:26:15.273Z,20.88
2022-09-10T11:29:23.225Z,20.63
2022-09-10T11:32:43.784Z,20.75
2022-09-10T11:35:39.924Z,20.75
2022-09-10T11:38:53.148Z,20.88
2022-09-10T11:41:26.818Z,21.00
2022-09-10T11:44:37.996Z,21.31
2022-09-10T11:47:25.079Z,20.88
2022-09-10T11:50:23.386Z,20.88
2022-09-10T11:52:51.349Z,20.88
2022-09-10T11:55:18.799Z,21.06
2022-09-10T12:01:49.503Z,21.31
2022-09-10T12:04:59.473Z,20.94
2022-09-10T12:07:53.916Z,21.13
2022-09-10T12:10:28.243Z,20.94
2022-09-10T12:12:55.475Z,20.88
2022-09-10T12:15:27.073Z,20.88
2022-09-10T12:18:15.574Z,20.75
2022-09-10T12:21:09.789Z,21.13
2022-09-10T12:23:40.533Z,21.13
2022-09-10T12:26:16.477Z,21.06
2022-09-10T12:28:43.634Z,21.19
2022-09-10T12:31:15.229Z,21.13
2022-09-10T12:33:45.358Z,21.06
2022-09-10T12:36:36.733Z,21.19
2022-09-10T12:39:27.782Z,21.31
2022-09-10T12:42:29.173Z,21.44
2022-09-10T12:44:56.564Z,21.44
2022-09-10T12:47:43.765Z,21.31
2022-09-10T12:50:30.205Z,21.13
2022-09-10T12:53:47.396Z,20.88
2022-09-10T12:56:54.336Z,21.19
2022-09-10T12:59:30.350Z,21.00
2022-09-10T13:01:59.059Z,20.94
2022-09-10T13:04:38.157Z,20.81
2022-09-10T13:07:21.987Z,20.88
2022-09-10T13:10:21.674Z,20.81
2022-09-10T13:12:57.243Z,21.00
2022-09-10T13:15:29.978Z,21.13
2022-09-10T13:17:57.279Z,21.38
2022-09-10T13:20:27.588Z,21.31
2022-09-10T13:23:09.816Z,21.13
2022-09-10T13:25:43.287Z,21.19
2022-09-10T13:28:30.020Z,20.94
2022-09-10T13:31:10.329Z,21.00
2022-09-10T13:33:52.259Z,20.94
2022-09-10T13:36:57.590Z,20.88
2022-09-10T13:39:37.189Z,20.94
2022-09-10T13:42:25.778Z,20.75
2022-09-10T13:45:33.764Z,20.75
2022-09-10T13:48:03.321Z,20.50
2022-09-10T13:51:02.540Z,20.56
2022-09-10T13:53:31.469Z,20.38
2022-09-10T13:56:14.362Z,20.25
2022-09-10T13:58:49.740Z,20.13
2022-09-10T14:01:17.949Z,20.06
2022-09-10T14:03:45.516Z,20.13
2022-09-10T14:06:21.787Z,20.06
2022-09-10T14:09:03.344Z,19.81
2022-09-10T14:11:35.581Z,19.69
2022-09-10T14:14:18.712Z,19.38
2022-09-10T14:16:54.268Z,19.25
2022-09-10T14:19:33.667Z,19.25
2022-09-10T14:22:01.709Z,19.31
2022-09-10T14:24:33.697Z,19.06
2022-09-10T14:27:32.950Z,19.00
2022-09-10T14:30:18.633Z,19.06
2022-09-10T14:32:48.996Z,18.81
2022-09-10T14:35:43.094Z,19.00
2022-09-10T14:38:34.695Z,18.94
2022-09-10T14:41:26.099Z,18.94
2022-09-10T14:44:29.822Z,18.88
2022-09-10T14:47:08.987Z,18.81
2022-09-10T14:49:39.612Z,18.63
2022-09-10T14:52:08.105Z,18.75
2022-09-10T14:54:35.652Z,18.94
2022-09-10T14:57:13.853Z,19.00
2022-09-10T14:59:44.091Z,19.00
2022-09-10T15:02:28.911Z,19.00
2022-09-10T15:04:57.055Z,18.94
2022-09-10T15:07:24.695Z,18.75
2022-09-10T15:09:58.607Z,18.69
2022-09-10T15:12:28.372Z,18.44
2022-09-10T15:14:57.221Z,18.56
2022-09-10T15:17:24.604Z,18.50
2022-09-10T15:19:52.306Z,18.63
2022-09-10T15:22:26.704Z,18.50
2022-09-10T15:25:11.497Z,18.31
2022-09-10T15:27:39.085Z,18.38
2022-09-10T15:30:07.509Z,18.31
2022-09-10T15:32:34.777Z,18.31
2022-09-10T15:35:03.410Z,18.31
2022-09-10T15:37:30.697Z,18.19
2022-09-10T15:39:58.171Z,17.94
2022-09-10T15:42:25.473Z,18.13
2022-09-10T15:44:52.777Z,17.94
2022-09-10T15:47:20.005Z,17.94
2022-09-10T15:49:47.348Z,17.88
2022-09-10T15:52:14.587Z,17.81
2022-09-10T15:54:43.175Z,17.75
2022-09-10T15:57:10.429Z,17.69
2022-09-10T15:59:37.705Z,17.88
2022-09-10T16:02:06.272Z,17.75
2022-09-10T16:04:36.208Z,17.63
2022-09-10T16:07:05.014Z,17.50
2022-09-10T16:09:32.919Z,17.38
2022-09-10T16:12:00.376Z,17.50
2022-09-10T16:14:27.733Z,17.38
2022-09-10T16:16:54.999Z,17.44
2022-09-10T16:19:22.379Z,17.50
2022-09-10T16:21:50.056Z,17.50
2022-09-10T16:24:17.289Z,17.63
2022-09-10T16:26:45.999Z,17.63
2022-09-10T16:29:16.670Z,17.75
2022-09-10T16:31:48.173Z,17.63
2022-09-10T16:34:18.931Z,17.81
2022-09-10T16:36:51.471Z,17.69
2022-09-10T16:39:20.229Z,17.50
2022-09-10T16:41:50.026Z,17.56
2022-09-10T16:44:19.273Z,17.50
2022-09-10T16:46:47.261Z,17.38
2022-09-10T16:49:18.436Z,17.31
2022-09-10T16:51:47.797Z,17.31
2022-09-10T16:54:15.990Z,17.50
2022-09-10T16:56:46.392Z,17.38
2022-09-10T16:59:23.297Z,17.44
2022-09-10T17:01:52.119Z,17.31
2022-09-10T17:04:27.569Z,17.31
2022-09-10T17:06:56.313Z,17.31
2022-09-10T17:09:24.946Z,17.13
2022-09-10T17:11:52.621Z,17.19
2022-09-10T17:14:19.936Z,17.19
2022-09-10T17:16:48.198Z,17.38
2022-09-10T17:19:23.596Z,17.25
2022-09-10T17:21:55.269Z,17.19
2022-09-10T17:24:26.613Z,17.06
2022-09-10T17:26:55.384Z,16.94
2022-09-10T17:29:25.335Z,16.94
2022-09-10T17:31:53.081Z,16.88
2022-09-10T17:34:21.687Z,16.81
2022-09-10T17:36:49.941Z,16.69
2022-09-10T17:39:18.188Z,16.63
2022-09-10T17:41:46.063Z,16.50
2022-09-10T17:44:14.664Z,16.63
2022-09-10T17:46:42.987Z,16.63
2022-09-10T17:49:13.568Z,16.44
2022-09-10T17:51:41.411Z,16.31
2022-09-10T17:54:08.936Z,16.38
2022-09-10T17:56:38.222Z,16.25
2022-09-10T17:59:06.746Z,16.25
2022-09-10T18:01:40.131Z,16.19
2022-09-10T18:04:09.335Z,16.06
2022-09-10T18:06:37.218Z,16.19
2022-09-10T18:09:06.631Z,16.06
2022-09-10T18:11:40.798Z,16.13
2022-09-10T18:14:12.279Z,15.88
2022-09-10T18:16:39.474Z,15.94
2022-09-10T18:19:14.251Z,16.06
2022-09-10T18:21:44.305Z,16.06
2022-09-10T18:24:14.313Z,15.88
2022-09-10T18:26:44.567Z,16.00
2022-09-10T18:29:22.258Z,15.94
2022-09-10T18:31:53.163Z,15.88
2022-09-10T18:34:27.751Z,15.63
2022-09-10T18:37:01.802Z,15.88
2022-09-10T18:39:32.555Z,15.81
2022-09-10T18:42:03.457Z,15.69
2022-09-10T18:44:34.215Z,15.56
2022-09-10T18:47:01.878Z,15.81
2022-09-10T18:49:29.903Z,15.38
2022-09-10T18:51:57.999Z,15.50
2022-09-10T18:54:31.376Z,15.31
2022-09-10T18:56:59.460Z,15.44
2022-09-10T18:59:28.001Z,15.50
2022-09-10T19:01:56.096Z,15.56
2022-09-10T19:04:29.456Z,15.63
2022-09-10T19:07:00.171Z,15.38
2022-09-10T19:09:31.473Z,15.56
2022-09-10T19:12:02.896Z,15.56
2022-09-10T19:14:35.111Z,15.44
2022-09-10T19:17:03.740Z,15.31
2022-09-10T19:19:33.983Z,15.31
2022-09-10T19:22:06.204Z,15.25
2022-09-10T19:24:54.050Z,15.31
2022-09-10T19:27:22.238Z,15.13
2022-09-10T19:29:50.258Z,15.13
2022-09-10T19:32:19.768Z,15.13
2022-09-10T19:34:55.502Z,15.06
2022-09-10T19:37:22.722Z,15.00
2022-09-10T19:39:50.045Z,15.19
2022-09-10T19:42:17.412Z,15.06
2022-09-10T19:44:44.699Z,14.94
2022-09-10T19:47:11.968Z,14.81
2022-09-10T19:49:39.231Z,14.69
2022-09-10T19:52:06.535Z,14.75
2022-09-10T19:54:33.775Z,14.81
2022-09-10T19:57:01.012Z,14.88
2022-09-10T19:59:28.261Z,14.69
2022-09-10T20:01:55.647Z,14.88
2022-09-10T20:04:23.040Z,14.81
2022-09-10T20:06:50.737Z,14.81
2022-09-10T20:09:18.278Z,14.88
2022-09-10T20:11:45.588Z,14.81
2022-09-10T20:14:14.574Z,14.63
2022-09-10T20:16:44.728Z,14.38
2022-09-10T20:19:18.350Z,14.50
2022-09-10T20:21:46.551Z,14.69
2022-09-10T20:24:14.439Z,14.38
2022-09-10T20:26:43.819Z,14.56
2022-09-10T20:29:14.739Z,14.81
2022-09-10T20:31:43.647Z,14.81
2022-09-10T20:34:17.754Z,14.63
2022-09-10T20:36:45.212Z,14.81
2022-09-10T20:39:15.121Z,14.81
2022-09-10T20:41:43.811Z,14.75
2022-09-10T20:44:14.633Z,14.38
2022-09-10T20:46:42.638Z,14.38
2022-09-10T20:49:12.107Z,14.44
2022-09-10T20:51:41.049Z,14.25
2022-09-10T20:54:13.220Z,14.25
2022-09-10T20:56:40.770Z,14.56
2022-09-10T20:59:08.377Z,14.25
2022-09-10T21:01:35.838Z,14.25
2022-09-10T21:04:04.164Z,14.13
2022-09-10T21:06:34.443Z,14.19
2022-09-10T21:09:02.767Z,14.25
2022-09-10T21:11:33.400Z,14.19
2022-09-10T21:14:03.594Z,14.31
2022-09-10T21:16:36.618Z,14.25
2022-09-10T21:19:11.782Z,14.13
2022-09-10T21:21:41.504Z,14.06
2022-09-10T21:24:20.456Z,14.31
2022-09-10T21:26:49.671Z,14.50
2022-09-10T21:29:22.469Z,14.56
2022-09-10T21:31:55.956Z,14.19
2022-09-10T21:34:24.308Z,14.44
2022-09-10T21:36:52.191Z,14.63
2022-09-10T21:39:20.541Z,14.75
2022-09-10T21:41:50.853Z,14.88
2022-09-10T21:44:23.625Z,14.81
2022-09-10T21:46:52.076Z,14.63
2022-09-10T21:49:21.046Z,14.81
2022-09-10T21:51:48.891Z,14.81
2022-09-10T21:54:22.262Z,14.94
2022-09-10T21:56:51.219Z,14.75
2022-09-10T21:59:21.491Z,14.69
2022-09-10T22:01:49.641Z,14.63
2022-09-10T22:04:22.211Z,14.56
2022-09-10T22:06:51.128Z,14.56
2022-09-10T22:09:19.923Z,14.50
2022-09-10T22:11:51.330Z,14.63
2022-09-10T22:14:21.901Z,14.75
2022-09-10T22:16:50.344Z,15.00
2022-09-10T22:19:24.586Z,14.75
2022-09-10T22:21:54.279Z,14.81
2022-09-10T22:24:22.303Z,14.75
2022-09-10T22:26:49.663Z,14.50
2022-09-10T22:29:19.355Z,14.56
2022-09-10T22:31:47.789Z,14.56
2022-09-10T22:34:17.451Z,14.75
2022-09-10T22:36:46.809Z,14.75
2022-09-10T22:39:22.312Z,14.81
2022-09-10T22:41:51.239Z,14.69
2022-09-10T22:44:19.953Z,14.75
2022-09-10T22:46:47.561Z,14.63
2022-09-10T22:49:16.182Z,14.50
2022-09-10T22:51:44.092Z,14.69
2022-09-10T22:54:11.714Z,14.63
2022-09-10T22:56:39.740Z,14.44
2022-09-10T22:59:10.045Z,14.63
2022-09-10T23:01:38.559Z,14.69
2022-09-10T23:04:08.298Z,14.63
2022-09-10T23:06:38.646Z,14.88
2022-09-10T23:09:16.989Z,14.63
2022-09-10T23:11:45.581Z,14.56
2022-09-10T23:14:19.255Z,14.75
2022-09-10T23:16:49.850Z,14.75
2022-09-10T23:19:21.566Z,14.44
2022-09-10T23:21:52.669Z,14.25
2022-09-10T23:24:24.451Z,14.50
2022-09-10T23:27:04.785Z,14.69
2022-09-10T23:29:32.098Z,14.50
2022-09-10T23:31:59.336Z,14.38
2022-09-10T23:34:26.625Z,14.50
2022-09-10T23:36:54.591Z,14.50
2022-09-10T23:39:24.419Z,14.44
2022-09-10T23:41:55.572Z,14.31
2022-09-10T23:44:23.589Z,14.31
2022-09-10T23:46:50.911Z,14.50
2022-09-10T23:49:18.238Z,14.50
2022-09-10T23:51:46.006Z,14.38
2022-09-10T23:54:13.622Z,14.31
2022-09-10T23:56:41.158Z,14.44
2022-09-10T23:59:10.070Z,14.50
